createdAt,value
2019-02-24T00:00:04.793Z,102120.31
2019-02-24T00:02:34.352Z,102125.59
2019-02-24T00:05:03.916Z,102126.55
2019-02-24T00:07:33.529Z,102126.55
2019-02-24T00:10:03.055Z,102116.56
2019-02-24T00:12:32.712Z,102114.07
2019-02-24T00:15:02.249Z,102111.50
2019-02-24T00:17:31.806Z,102111.50
2019-02-24T00:20:01.463Z,102113.56
2019-02-24T00:22:30.985Z,102124.08
2019-02-24T00:25:00.578Z,102121.95
2019-02-24T00:27:30.238Z,102124.47
2019-02-24T00:29:59.802Z,102124.47
2019-02-24T00:32:29.322Z,102113.56
2019-02-24T00:34:58.873Z,102118.44
2019-02-24T00:37:28.415Z,102114.07
2019-02-24T00:39:58.121Z,102107.13
2019-02-24T00:42:27.632Z,102107.13
2019-02-24T00:44:57.235Z,102108.50
2019-02-24T00:47:26.790Z,102106.83
2019-02-24T00:49:56.328Z,102112.70
2019-02-24T00:52:25.866Z,102112.70
2019-02-24T00:54:55.524Z,102107.48
2019-02-24T00:57:25.076Z,102107.48
2019-02-24T00:59:54.628Z,102106.47
2019-02-24T01:02:24.454Z,102109.26
2019-02-24T01:04:53.970Z,102112.47
2019-02-24T01:07:23.574Z,102106.84
2019-02-24T01:09:53.115Z,102107.28
2019-02-24T01:12:22.845Z,102104.28
2019-02-24T01:14:52.392Z,102098.66
2019-02-24T01:17:21.949Z,102098.66
2019-02-24T01:19:51.635Z,102098.39
2019-02-24T01:22:21.238Z,102098.39
2019-02-24T01:24:50.870Z,102103.29
2019-02-24T01:27:20.408Z,102091.98
2019-02-24T01:29:49.971Z,102091.66
2019-02-24T01:32:19.521Z,102102.59
2019-02-24T01:34:49.150Z,102102.59
2019-02-24T01:37:18.674Z,102106.06
2019-02-24T01:39:48.192Z,102099.01
2019-02-24T01:42:17.745Z,102094.17
2019-02-24T01:44:47.293Z,102103.95
2019-02-24T01:47:16.907Z,102103.95
2019-02-24T01:49:46.482Z,102100.39
2019-02-24T01:52:16.022Z,102098.66
2019-02-24T01:54:45.634Z,102089.94
2019-02-24T01:57:15.207Z,102084.43
2019-02-24T01:59:44.833Z,102086.16
2019-02-24T02:02:14.418Z,102086.16
2019-02-24T02:04:43.980Z,102088.63
2019-02-24T02:07:13.505Z,102088.63
2019-02-24T02:09:43.148Z,102083.22
2019-02-24T02:12:12.694Z,102074.48
2019-02-24T02:14:42.354Z,102074.48
2019-02-24T02:17:11.959Z,102069.98
2019-02-24T02:19:41.520Z,102066.00
2019-02-24T02:22:11.079Z,102061.24
2019-02-24T02:24:40.708Z,102061.24
2019-02-24T02:27:10.231Z,102062.24
2019-02-24T02:29:39.793Z,102066.32
2019-02-24T02:32:09.325Z,102068.11
2019-02-24T02:34:38.859Z,102068.59
2019-02-24T02:37:08.445Z,102061.39
2019-02-24T02:39:38.257Z,102046.27
2019-02-24T02:42:07.823Z,102046.27
2019-02-24T02:44:37.390Z,102050.23
2019-02-24T02:47:07.044Z,102042.60
2019-02-24T02:49:36.677Z,102042.60
2019-02-24T02:52:06.211Z,102043.94
2019-02-24T02:54:35.771Z,102043.47
2019-02-24T02:57:05.304Z,102048.58
2019-02-24T02:59:34.840Z,102048.58
2019-02-24T03:02:04.362Z,102043.98
2019-02-24T03:04:34.027Z,102043.98
2019-02-24T03:07:25.402Z,102048.25
2019-02-24T03:09:54.985Z,102053.36
2019-02-24T03:12:24.510Z,102053.98
2019-02-24T03:14:54.046Z,102052.95
2019-02-24T03:17:24.482Z,102041.02
2019-02-24T03:19:54.019Z,102041.02
2019-02-24T03:22:23.544Z,102050.98
2019-02-24T03:24:53.115Z,102044.72
2019-02-24T03:27:22.786Z,102044.72
2019-02-24T03:29:52.326Z,102043.69
2019-02-24T03:32:21.903Z,102040.89
2019-02-24T03:34:51.458Z,102041.64
2019-02-24T03:37:21.024Z,102038.44
2019-02-24T03:39:50.575Z,102031.83
2019-02-24T03:42:20.103Z,102031.83
2019-02-24T03:44:49.638Z,102034.20
2019-02-24T03:47:19.183Z,102027.95
2019-02-24T03:49:48.776Z,102028.72
2019-02-24T03:52:18.304Z,102029.64
2019-02-24T03:54:47.858Z,102030.03
2019-02-24T03:57:17.405Z,102027.36
2019-02-24T03:59:47.043Z,102027.36
2019-02-24T04:02:16.613Z,102012.49
2019-02-24T04:04:46.182Z,102014.78
2019-02-24T04:07:15.730Z,102014.78
2019-02-24T04:09:45.262Z,102021.02
2019-02-24T04:12:14.811Z,102015.77
2019-02-24T04:14:44.367Z,102006.16
2019-02-24T04:17:13.920Z,102019.70
2019-02-24T04:19:43.512Z,102014.03
2019-02-24T04:22:13.127Z,102009.45
2019-02-24T04:24:42.654Z,102019.29
2019-02-24T04:27:12.241Z,102016.19
2019-02-24T04:29:41.823Z,102022.36
2019-02-24T04:32:11.501Z,102023.15
2019-02-24T04:34:41.129Z,102018.03
2019-02-24T04:37:10.657Z,102018.03
2019-02-24T04:39:40.202Z,102011.66
2019-02-24T04:42:09.765Z,102011.66
2019-02-24T04:44:39.304Z,102011.50
2019-02-24T04:47:08.946Z,102001.87
2019-02-24T04:49:38.484Z,102014.91
2019-02-24T04:52:08.011Z,102010.97
2019-02-24T04:54:37.574Z,102002.63
2019-02-24T04:57:07.134Z,102002.63
2019-02-24T04:59:36.766Z,102012.49
2019-02-24T05:02:06.329Z,102004.14
2019-02-24T05:04:35.988Z,102012.05
2019-02-24T05:07:05.517Z,102010.94
2019-02-24T05:09:35.068Z,102010.94
2019-02-24T05:12:04.615Z,102001.33
2019-02-24T05:14:34.163Z,102010.52
2019-02-24T05:17:03.763Z,102010.52
2019-02-24T05:19:33.411Z,102004.98
2019-02-24T05:22:03.190Z,102006.06
2019-02-24T05:24:32.763Z,102021.81
2019-02-24T05:27:02.397Z,102021.81
2019-02-24T05:29:31.927Z,102023.13
2019-02-24T05:32:01.478Z,102022.34
2019-02-24T05:34:31.019Z,102022.34
2019-02-24T05:37:00.575Z,102028.72
2019-02-24T05:39:30.149Z,102031.16
2019-02-24T05:41:59.687Z,102034.97
2019-02-24T05:44:29.280Z,102030.39
2019-02-24T05:46:58.804Z,102030.39
2019-02-24T05:49:28.463Z,102038.77
2019-02-24T05:51:58.105Z,102036.78
2019-02-24T05:54:27.722Z,102036.78
2019-02-24T05:56:57.320Z,102031.64
2019-02-24T05:59:26.940Z,102041.31
2019-02-24T06:01:56.463Z,102037.51
2019-02-24T06:04:26.078Z,102042.45
2019-02-24T06:06:55.639Z,102051.20
2019-02-24T06:09:25.289Z,102048.11
2019-02-24T06:11:55.115Z,102050.16
2019-02-24T06:14:24.659Z,102053.98
2019-02-24T06:16:54.267Z,102047.64
2019-02-24T06:19:23.969Z,102051.48
2019-02-24T06:21:53.523Z,102052.16
2019-02-24T06:24:23.120Z,102056.27
2019-02-24T06:26:52.650Z,102060.33
2019-02-24T06:29:22.195Z,102060.38
2019-02-24T06:31:51.741Z,102055.44
2019-02-24T06:34:21.274Z,102061.77
2019-02-24T06:36:50.862Z,102053.72
2019-02-24T06:39:20.472Z,102065.44
2019-02-24T06:41:50.081Z,102060.16
2019-02-24T06:44:19.666Z,102054.02
2019-02-24T06:46:49.249Z,102052.22
2019-02-24T06:49:18.781Z,102055.59
2019-02-24T06:51:48.313Z,102062.75
2019-02-24T06:54:17.891Z,102062.12
2019-02-24T06:56:47.505Z,102066.55
2019-02-24T06:59:17.052Z,102061.02
2019-02-24T07:01:46.582Z,102065.09
2019-02-24T07:04:16.137Z,102063.86
2019-02-24T07:06:45.695Z,102068.14
2019-02-24T07:09:15.245Z,102069.66
2019-02-24T07:11:44.824Z,102069.16
2019-02-24T07:14:14.351Z,102068.94
2019-02-24T07:16:43.909Z,102070.37
2019-02-24T07:19:13.457Z,102070.87
2019-02-24T07:21:43.024Z,102068.06
2019-02-24T07:24:12.570Z,102059.92
2019-02-24T07:26:42.122Z,102074.88
2019-02-24T07:29:11.696Z,102070.80
2019-02-24T07:31:41.222Z,102068.82
2019-02-24T07:34:10.778Z,102070.78
2019-02-24T07:36:40.328Z,102085.06
2019-02-24T07:39:09.877Z,102081.05
2019-02-24T07:41:39.429Z,102078.00
2019-02-24T07:44:08.971Z,102085.03
2019-02-24T07:46:38.525Z,102081.17
2019-02-24T07:49:08.097Z,102081.80
2019-02-24T07:51:37.653Z,102078.75
2019-02-24T07:54:07.242Z,102080.63
2019-02-24T07:56:37.392Z,102085.54
2019-02-24T07:59:07.009Z,102083.45
2019-02-24T08:01:36.637Z,102084.17
2019-02-24T08:04:06.193Z,102086.11
2019-02-24T08:06:35.862Z,102089.77
2019-02-24T08:09:05.422Z,102094.07
2019-02-24T08:11:34.975Z,102076.31
2019-02-24T08:14:04.583Z,102079.73
2019-02-24T08:16:34.132Z,102078.59
2019-02-24T08:19:03.719Z,102082.91
2019-02-24T08:21:33.281Z,102085.46
2019-02-24T08:24:02.872Z,102082.28
2019-02-24T08:26:32.405Z,102084.82
2019-02-24T08:29:01.959Z,102085.34
2019-02-24T08:31:31.538Z,102077.36
2019-02-24T08:34:01.063Z,102076.00
2019-02-24T08:36:30.582Z,102075.94
2019-02-24T08:39:00.158Z,102078.52
2019-02-24T08:41:29.756Z,102076.56
2019-02-24T08:43:59.340Z,102073.20
2019-02-24T08:46:28.906Z,102064.89
2019-02-24T08:48:58.515Z,102075.05
2019-02-24T08:51:28.184Z,102071.39
2019-02-24T08:53:57.889Z,102066.15
2019-02-24T08:56:27.506Z,102062.09
2019-02-24T08:58:57.137Z,102056.65
2019-02-24T09:01:26.711Z,102063.20
2019-02-24T09:03:56.354Z,102053.57
2019-02-24T09:06:25.960Z,102062.27
2019-02-24T09:08:55.505Z,102059.92
2019-02-24T09:11:25.140Z,102056.95
2019-02-24T09:13:54.755Z,102055.64
2019-02-24T09:16:24.367Z,102063.56
2019-02-24T09:18:53.942Z,102058.67
2019-02-24T09:21:23.614Z,102056.54
2019-02-24T09:23:53.228Z,102058.20
2019-02-24T09:26:22.925Z,102056.84
2019-02-24T09:28:52.448Z,102060.08
2019-02-24T09:31:22.122Z,102064.64
2019-02-24T09:33:51.787Z,102055.41
2019-02-24T09:36:21.387Z,102053.81
2019-02-24T09:38:50.991Z,102062.28
2019-02-24T09:41:20.737Z,102052.63
2019-02-24T09:43:50.359Z,102058.89
2019-02-24T09:46:20.067Z,102063.41
2019-02-24T09:48:49.630Z,102050.05
2019-02-24T09:51:19.187Z,102043.23
2019-02-24T09:53:48.885Z,102043.33
2019-02-24T09:56:18.521Z,102049.91
2019-02-24T09:58:48.203Z,102046.33
2019-02-24T10:01:17.809Z,102037.13
2019-02-24T10:03:47.405Z,102033.78
2019-02-24T10:06:16.980Z,102029.04
2019-02-24T10:08:46.702Z,102029.76
2019-02-24T10:11:16.454Z,102036.36
2019-02-24T10:13:45.989Z,102031.98
2019-02-24T10:16:15.698Z,102030.36
2019-02-24T10:18:45.372Z,102019.87
2019-02-24T10:21:15.012Z,102021.53
2019-02-24T10:23:44.548Z,102016.67
2019-02-24T10:26:14.225Z,102016.36
2019-02-24T10:28:44.001Z,102011.00
2019-02-24T10:31:19.868Z,102001.53
2019-02-24T10:33:45.053Z,101999.33
2019-02-24T10:36:14.608Z,101994.21
2019-02-24T10:38:44.278Z,101993.74
2019-02-24T10:41:13.811Z,101995.50
2019-02-24T10:43:43.539Z,101995.36
2019-02-24T10:46:13.114Z,101993.82
2019-02-24T10:48:42.647Z,101996.76
2019-02-24T10:51:12.266Z,101989.20
2019-02-24T10:53:41.807Z,101989.10
2019-02-24T10:56:12.496Z,101997.45
2019-02-24T10:58:42.049Z,101988.84
2019-02-24T11:01:11.597Z,101982.37
2019-02-24T11:03:41.128Z,101976.02
2019-02-24T11:06:10.761Z,101976.25
2019-02-24T11:08:40.322Z,101968.34
2019-02-24T11:11:09.997Z,101965.16
2019-02-24T11:13:39.526Z,101951.98
2019-02-24T11:16:09.149Z,101959.78
2019-02-24T11:18:38.881Z,101950.45
2019-02-24T11:21:08.490Z,101944.37
2019-02-24T11:23:38.173Z,101944.80
2019-02-24T11:26:07.702Z,101940.36
2019-02-24T11:28:37.411Z,101946.53
2019-02-24T11:31:06.950Z,101941.20
2019-02-24T11:33:36.518Z,101943.14
2019-02-24T11:36:06.076Z,101947.84
2019-02-24T11:38:35.606Z,101950.80
2019-02-24T11:41:05.147Z,101943.91
2019-02-24T11:43:34.795Z,101939.44
2019-02-24T11:46:05.259Z,101938.97
2019-02-24T11:48:34.830Z,101936.25
2019-02-24T11:51:04.484Z,101932.80
2019-02-24T11:53:34.051Z,101930.55
2019-02-24T11:56:03.606Z,101921.89
2019-02-24T11:58:33.192Z,101922.58
2019-02-24T12:01:02.896Z,101917.08
2019-02-24T12:03:32.440Z,101904.63
2019-02-24T12:06:02.034Z,101911.66
2019-02-24T12:08:31.795Z,101905.44
2019-02-24T12:11:01.405Z,101911.39
2019-02-24T12:13:31.058Z,101901.16
2019-02-24T12:16:00.656Z,101898.00
2019-02-24T12:18:30.317Z,101897.87
2019-02-24T12:20:59.868Z,101894.81
2019-02-24T12:23:29.419Z,101898.30
2019-02-24T12:25:58.987Z,101892.56
2019-02-24T12:28:28.557Z,101896.54
2019-02-24T12:30:58.271Z,101889.46
2019-02-24T12:33:27.813Z,101888.12
2019-02-24T12:35:57.351Z,101882.75
2019-02-24T12:38:27.003Z,101877.69
2019-02-24T12:40:56.549Z,101876.72
2019-02-24T12:43:26.242Z,101878.13
2019-02-24T12:45:55.809Z,101872.37
2019-02-24T12:48:25.337Z,101875.70
2019-02-24T12:50:54.893Z,101871.42
2019-02-24T12:53:24.527Z,101872.83
2019-02-24T12:55:54.097Z,101867.67
2019-02-24T12:58:23.639Z,101861.11
2019-02-24T13:00:53.576Z,101858.70
2019-02-24T13:03:24.195Z,101858.52
2019-02-24T13:05:53.932Z,101855.80
2019-02-24T13:08:23.491Z,101853.75
2019-02-24T13:10:53.122Z,101848.95
2019-02-24T13:13:22.645Z,101846.89
2019-02-24T13:15:52.276Z,101845.16
2019-02-24T13:18:21.880Z,101842.84
2019-02-24T13:20:51.672Z,101834.70
2019-02-24T13:23:21.228Z,101832.69
2019-02-24T13:25:50.795Z,101833.77
2019-02-24T13:28:20.340Z,101832.62
2019-02-24T13:30:49.886Z,101830.33
2019-02-24T13:33:19.446Z,101831.31
2019-02-24T13:35:48.998Z,101838.47
2019-02-24T13:38:18.546Z,101831.19
2019-02-24T13:40:48.134Z,101839.20
2019-02-24T13:43:17.683Z,101844.16
2019-02-24T13:45:47.234Z,101838.27
2019-02-24T13:48:16.772Z,101833.17
2019-02-24T13:50:46.436Z,101841.16
2019-02-24T13:53:15.980Z,101834.91
2019-02-24T13:55:45.598Z,101840.77
2019-02-24T13:58:15.263Z,101846.40
2019-02-24T14:00:44.899Z,101835.59
2019-02-24T14:03:14.534Z,101839.56
2019-02-24T14:05:44.111Z,101838.90
2019-02-24T14:08:13.769Z,101834.66
2019-02-24T14:10:43.408Z,101828.30
2019-02-24T14:13:12.970Z,101833.53
2019-02-24T14:15:42.528Z,101826.41
2019-02-24T14:18:12.107Z,101827.94
2019-02-24T14:20:41.702Z,101826.11
2019-02-24T14:23:11.315Z,101832.75
2019-02-24T14:25:40.925Z,101828.12
2019-02-24T14:28:10.565Z,101826.76
2019-02-24T14:30:40.147Z,101825.48
2019-02-24T14:33:09.872Z,101820.20
2019-02-24T14:35:39.424Z,101818.03
2019-02-24T14:38:09.063Z,101818.48
2019-02-24T14:40:38.655Z,101814.81
2019-02-24T14:43:08.264Z,101819.39
2019-02-24T14:45:37.804Z,101816.14
2019-02-24T14:48:07.351Z,101818.08
2019-02-24T14:50:36.903Z,101823.82
2019-02-24T14:53:06.448Z,101818.08
2019-02-24T14:55:36.024Z,101814.77
2019-02-24T14:58:05.583Z,101813.61
2019-02-24T15:00:35.254Z,101809.64
2019-02-24T15:03:04.841Z,101809.34
2019-02-24T15:05:34.588Z,101811.63
2019-02-24T15:08:04.141Z,101810.55
2019-02-24T15:10:33.733Z,101806.03
2019-02-24T15:13:03.296Z,101807.27
2019-02-24T15:15:33.521Z,101805.02
2019-02-24T15:18:03.305Z,101805.33
2019-02-24T15:20:32.906Z,101804.25
2019-02-24T15:23:02.463Z,101801.31
2019-02-24T15:25:32.083Z,101801.12
2019-02-24T15:28:01.633Z,101799.80
2019-02-24T15:30:32.160Z,101803.30
2019-02-24T15:33:01.718Z,101800.80
2019-02-24T15:35:31.253Z,101803.04
2019-02-24T15:38:00.814Z,101804.62
2019-02-24T15:40:30.498Z,101754.33
2019-02-24T15:43:00.107Z,101801.66
2019-02-24T15:45:29.638Z,101799.88
2019-02-24T15:47:59.230Z,101802.98
2019-02-24T15:50:28.818Z,101801.83
2019-02-24T15:52:58.414Z,101801.94
2019-02-24T15:55:28.002Z,101803.91
2019-02-24T15:57:57.568Z,101811.77
2019-02-24T16:00:27.158Z,101800.34
2019-02-24T16:03:01.600Z,101808.52
2019-02-24T16:05:28.204Z,101813.30
2019-02-24T16:07:57.814Z,101819.23
2019-02-24T16:10:27.354Z,101821.31
2019-02-24T16:12:56.980Z,101820.55
2019-02-24T16:15:26.552Z,101823.33
2019-02-24T16:17:56.115Z,101822.47
2019-02-24T16:20:26.365Z,101833.94
2019-02-24T16:22:56.031Z,101834.34
2019-02-24T16:25:25.684Z,101829.22
2019-02-24T16:27:55.497Z,101836.33
2019-02-24T16:30:25.093Z,101833.47
2019-02-24T16:32:54.629Z,101835.47
2019-02-24T16:35:24.242Z,101830.70
2019-02-24T16:37:53.843Z,101830.57
2019-02-24T16:40:23.525Z,101839.63
2019-02-24T16:42:53.264Z,101828.72
2019-02-24T16:45:22.908Z,101825.45
2019-02-24T16:47:52.463Z,101831.55
2019-02-24T16:50:22.113Z,101827.28
2019-02-24T16:52:51.806Z,101836.59
2019-02-24T16:55:21.392Z,101834.77
2019-02-24T16:57:51.027Z,101840.19
2019-02-24T17:00:20.890Z,101836.25
2019-02-24T17:02:50.455Z,101839.55
2019-02-24T17:05:20.059Z,101834.16
2019-02-24T17:07:49.682Z,101832.64
2019-02-24T17:10:19.840Z,101837.04
2019-02-24T17:12:49.484Z,101831.15
2019-02-24T17:15:19.062Z,101832.96
2019-02-24T17:17:49.118Z,101829.14
2019-02-24T17:20:19.229Z,101830.69
2019-02-24T17:22:48.841Z,101835.25
2019-02-24T17:25:21.318Z,101832.44
2019-02-24T17:27:53.919Z,101835.56
2019-02-24T17:30:24.107Z,101833.87
2019-02-24T17:32:53.906Z,101827.89
2019-02-24T17:35:23.800Z,101828.95
2019-02-24T17:37:53.467Z,101821.17
2019-02-24T17:40:23.564Z,101823.84
2019-02-24T17:42:53.211Z,101814.75
2019-02-24T17:45:23.041Z,101818.62
2019-02-24T17:47:55.891Z,101819.22
2019-02-24T17:50:25.611Z,101824.15
2019-02-24T17:52:55.380Z,101819.11
2019-02-24T17:55:25.548Z,101825.45
2019-02-24T17:57:55.207Z,101823.02
2019-02-24T18:00:30.498Z,101826.72
2019-02-24T18:03:00.162Z,101821.16
2019-02-24T18:05:29.853Z,101824.34
2019-02-24T18:07:59.472Z,101822.65
2019-02-24T18:10:29.119Z,101824.59
2019-02-24T18:12:58.734Z,101821.61
2019-02-24T18:15:28.330Z,101823.10
2019-02-24T18:17:57.873Z,101817.60
2019-02-24T18:20:27.423Z,101818.05
2019-02-24T18:22:57.013Z,101819.88
2019-02-24T18:25:26.650Z,101816.91
2019-02-24T18:27:56.232Z,101812.66
2019-02-24T18:30:25.823Z,101813.69
2019-02-24T18:32:55.391Z,101819.45
2019-02-24T18:35:25.015Z,101821.77
2019-02-24T18:37:54.768Z,101825.00
2019-02-24T18:40:24.351Z,101825.00
2019-02-24T18:43:00.147Z,101827.24
2019-02-24T18:45:25.238Z,101828.59
2019-02-24T18:47:54.853Z,101833.04
2019-02-24T18:50:24.473Z,101833.94
2019-02-24T18:52:54.061Z,101827.05
2019-02-24T18:55:23.762Z,101821.89
2019-02-24T18:57:53.414Z,101835.92
2019-02-24T19:00:23.039Z,101829.13
2019-02-24T19:02:54.815Z,101838.73
2019-02-24T19:05:23.941Z,101833.57
2019-02-24T19:07:53.490Z,101833.57
2019-02-24T19:10:23.057Z,101834.55
2019-02-24T19:12:52.593Z,101834.55
2019-02-24T19:15:22.176Z,101829.13
2019-02-24T19:17:51.742Z,101829.13
2019-02-24T19:20:21.377Z,101836.50
2019-02-24T19:22:50.930Z,101837.88
2019-02-24T19:25:20.505Z,101835.84
2019-02-24T19:27:50.055Z,101835.84
2019-02-24T19:30:19.682Z,101833.22
2019-02-24T19:32:49.255Z,101833.22
2019-02-24T19:35:18.829Z,101835.06
2019-02-24T19:37:48.389Z,101835.17
2019-02-24T19:40:18.173Z,101837.44
2019-02-24T19:42:47.727Z,101841.84
2019-02-24T19:45:17.895Z,101838.08
2019-02-24T19:47:47.453Z,101843.70
2019-02-24T19:50:17.459Z,101844.22
2019-02-24T19:52:47.075Z,101833.92
2019-02-24T19:55:16.645Z,101842.61
2019-02-24T19:57:46.202Z,101841.80
2019-02-24T20:00:18.693Z,101837.53
2019-02-24T20:02:48.373Z,101837.53
2019-02-24T20:05:18.044Z,101841.32
2019-02-24T20:07:47.742Z,101841.88
2019-02-24T20:10:18.901Z,101842.80
2019-02-24T20:12:48.469Z,101839.50
2019-02-24T20:15:18.153Z,101849.44
2019-02-24T20:17:47.724Z,101849.44
2019-02-24T20:20:17.395Z,101851.61
2019-02-24T20:22:47.011Z,101846.05
2019-02-24T20:25:16.697Z,101848.28
2019-02-24T20:27:46.240Z,101848.28
2019-02-24T20:30:18.777Z,101850.77
2019-02-24T20:32:48.582Z,101849.56
2019-02-24T20:35:18.173Z,101849.56
2019-02-24T20:37:47.881Z,101854.75
2019-02-24T20:40:17.435Z,101848.67
2019-02-24T20:42:47.021Z,101851.79
2019-02-24T20:45:17.603Z,101847.88
2019-02-24T20:47:47.192Z,101854.88
2019-02-24T20:50:17.826Z,101849.71
2019-02-24T20:52:47.402Z,101853.39
2019-02-24T20:55:17.090Z,101853.39
2019-02-24T20:57:47.260Z,101860.89
2019-02-24T21:00:22.860Z,101865.91
2019-02-24T21:02:52.431Z,101870.42
2019-02-24T21:05:21.978Z,101878.91
2019-02-24T21:07:51.600Z,101878.91
2019-02-24T21:10:21.179Z,101872.47
2019-02-24T21:12:50.741Z,101879.95
2019-02-24T21:15:20.330Z,101875.59
2019-02-24T21:17:49.900Z,101872.47
2019-02-24T21:20:21.411Z,101879.52
2019-02-24T21:22:51.089Z,101882.06
2019-02-24T21:25:20.688Z,101875.60
2019-02-24T21:27:50.296Z,101879.12
2019-02-24T21:30:19.941Z,101889.70
2019-02-24T21:32:49.499Z,101889.70
2019-02-24T21:35:19.119Z,101886.70
2019-02-24T21:37:48.719Z,101884.94
2019-02-24T21:40:18.463Z,101887.55
2019-02-24T21:42:48.013Z,101892.75
2019-02-24T21:45:18.746Z,101892.75
2019-02-24T21:47:48.304Z,101890.93
2019-02-24T21:50:17.998Z,101894.37
2019-02-24T21:52:47.530Z,101898.75
2019-02-24T21:55:17.138Z,101898.75
2019-02-24T21:57:46.698Z,101893.59
2019-02-24T22:00:21.119Z,101899.34
2019-02-24T22:02:50.643Z,101897.17
2019-02-24T22:05:20.193Z,101897.27
2019-02-24T22:07:49.726Z,101897.31
2019-02-24T22:10:19.343Z,101900.87
2019-02-24T22:12:48.993Z,101899.58
2019-02-24T22:15:19.038Z,101896.55
2019-02-24T22:17:48.603Z,101892.66
2019-02-24T22:20:20.140Z,101890.42
2019-02-24T22:22:49.785Z,101895.67
2019-02-24T22:25:19.488Z,101895.24
2019-02-24T22:27:49.043Z,101894.84
2019-02-24T22:30:18.811Z,101890.55
2019-02-24T22:32:48.511Z,101893.63
2019-02-24T22:35:18.046Z,101892.34
2019-02-24T22:37:47.633Z,101891.89
2019-02-24T22:40:17.349Z,101900.61
2019-02-24T22:42:46.877Z,101897.61
2019-02-24T22:45:17.260Z,101898.91
2019-02-24T22:47:46.987Z,101898.02
2019-02-24T22:50:16.632Z,101893.63
2019-02-24T22:52:46.232Z,101895.78
2019-02-24T22:55:15.827Z,101899.28
2019-02-24T22:57:45.421Z,101904.57
2019-02-24T23:00:50.319Z,101906.32
2019-02-24T23:03:19.963Z,101907.30
2019-02-24T23:05:49.505Z,101907.85
2019-02-24T23:08:19.049Z,101910.56
2019-02-24T23:10:48.743Z,101913.66
2019-02-24T23:13:18.281Z,101916.80
2019-02-24T23:15:47.836Z,101916.80
2019-02-24T23:18:17.382Z,101916.80
2019-02-24T23:20:47.099Z,101915.48
2019-02-24T23:23:16.640Z,101909.28
2019-02-24T23:25:46.212Z,101910.98
2019-02-24T23:28:15.896Z,101901.34
2019-02-24T23:30:45.607Z,101905.76
2019-02-24T23:33:15.316Z,101900.48
2019-02-24T23:35:44.938Z,101906.21
2019-02-24T23:38:14.614Z,101905.77
2019-02-24T23:40:44.171Z,101898.79
2019-02-24T23:43:13.794Z,101902.28
2019-02-24T23:45:43.383Z,101905.69
2019-02-24T23:48:13.002Z,101909.19
